sensor_id;sensor_type;location;lat;lon;timestamp;pressure;altitude;pressure_sealevel;temperature;humidity
9035;BME280;4552;43.422;24.592;2023-09-19T00:12:32;100183.91;;;16.39;91.57
9035;BME280;4552;43.422;24.592;2023-09-19T00:14:59;100188.16;;;16.45;91.23
9035;BME280;4552;43.422;24.592;2023-09-19T00:17:27;100186.53;;;16.39;92.32
9035;BME280;4552;43.422;24.592;2023-09-19T00:19:57;100181.53;;;16.32;92.73
9035;BME280;4552;43.422;24.592;2023-09-19T00:22:24;100185.66;;;16.39;92.62
9035;BME280;4552;43.422;24.592;2023-09-19T00:24:52;100179.63;;;16.35;91.73
9035;BME280;4552;43.422;24.592;2023-09-19T00:27:20;100175.75;;;16.19;92.84
9035;BME280;4552;43.422;24.592;2023-09-19T00:29:49;100180.13;;;16.20;92.74
9035;BME280;4552;43.422;24.592;2023-09-19T00:32:18;100193.03;;;16.29;91.65
9035;BME280;4552;43.422;24.592;2023-09-19T03:14:30;100137.50;;;14.26;100.00
9035;BME280;4552;43.422;24.592;2023-09-19T03:17:00;100158.31;;;14.35;100.00
9035;BME280;4552;43.422;24.592;2023-09-19T03:19:30;100158.91;;;14.46;100.00
9035;BME280;4552;43.422;24.592;2023-09-19T03:21:58;100151.53;;;14.23;100.00
9035;BME280;4552;43.422;24.592;2023-09-19T03:24:26;100160.94;;;14.35;100.00
9035;BME280;4552;43.422;24.592;2023-09-19T03:37:01;100141.19;;;14.16;100.00
9035;BME280;4552;43.422;24.592;2023-09-19T03:39:28;100159.25;;;14.32;100.00
9035;BME280;4552;43.422;24.592;2023-09-19T03:41:55;100150.06;;;14.48;100.00
9035;BME280;4552;43.422;24.592;2023-09-19T03:44:22;100157.03;;;14.49;100.00
9035;BME280;4552;43.422;24.592;2023-09-19T03:46:49;100148.34;;;14.47;100.00
9035;BME280;4552;43.422;24.592;2023-09-19T03:49:16;100155.41;;;14.45;100.00
9035;BME280;4552;43.422;24.592;2023-09-19T03:51:43;100150.81;;;14.53;100.00
9035;BME280;4552;43.422;24.592;2023-09-19T03:54:11;100158.13;;;14.74;100.00
9035;BME280;4552;43.422;24.592;2023-09-19T03:56:38;100160.72;;;14.76;100.00
9035;BME280;4552;43.422;24.592;2023-09-19T03:59:05;100161.06;;;14.64;100.00
9035;BME280;4552;43.422;24.592;2023-09-19T04:01:34;100140.53;;;14.43;100.00
9035;BME280;4552;43.422;24.592;2023-09-19T04:04:00;100143.69;;;14.22;100.00
9035;BME280;4552;43.422;24.592;2023-09-19T04:06:33;100140.41;;;14.14;100.00
9035;BME280;4552;43.422;24.592;2023-09-19T04:09:00;100150.88;;;14.15;100.00
9035;BME280;4552;43.422;24.592;2023-09-19T04:11:28;100153.69;;;14.08;100.00
9035;BME280;4552;43.422;24.592;2023-09-19T04:13:55;100147.59;;;14.06;100.00
9035;BME280;4552;43.422;24.592;2023-09-19T04:16:22;100157.63;;;14.27;100.00
9035;BME280;4552;43.422;24.592;2023-09-19T04:18:49;100167.19;;;14.31;100.00
9035;BME280;4552;43.422;24.592;2023-09-19T04:21:16;100159.34;;;14.28;100.00
9035;BME280;4552;43.422;24.592;2023-09-19T04:23:45;100161.59;;;14.43;100.00
9035;BME280;4552;43.422;24.592;2023-09-19T05:13:06;100167.53;;;16.28;99.31
9035;BME280;4552;43.422;24.592;2023-09-19T05:15:35;100162.66;;;16.42;98.98
9035;BME280;4552;43.422;24.592;2023-09-19T05:18:03;100151.16;;;16.69;97.91
9035;BME280;4552;43.422;24.592;2023-09-19T05:20:31;100149.88;;;16.81;95.89
9035;BME280;4552;43.422;24.592;2023-09-19T05:23:01;100152.44;;;16.84;94.78
9035;BME280;4552;43.422;24.592;2023-09-19T05:25:29;100145.94;;;16.92;95.36
9035;BME280;4552;43.422;24.592;2023-09-19T05:48:07;100145.38;;;18.20;87.33
9035;BME280;4552;43.422;24.592;2023-09-19T05:50:34;100150.81;;;17.51;89.66
9035;BME280;4552;43.422;24.592;2023-09-19T05:53:01;100146.31;;;17.29;93.58
9035;BME280;4552;43.422;24.592;2023-09-19T05:55:30;100144.63;;;17.27;93.94
9035;BME280;4552;43.422;24.592;2023-09-19T05:57:57;100142.63;;;17.33;94.58
9035;BME280;4552;43.422;24.592;2023-09-19T06:00:24;100147.16;;;17.30;95.89
9035;BME280;4552;43.422;24.592;2023-09-19T06:02:53;100137.09;;;17.16;95.67
9035;BME280;4552;43.422;24.592;2023-09-19T06:05:22;100132.81;;;16.89;95.44
9035;BME280;4552;43.422;24.592;2023-09-19T06:07:50;100139.34;;;17.04;94.61
9035;BME280;4552;43.422;24.592;2023-09-19T06:10:18;100136.25;;;17.16;93.92
9035;BME280;4552;43.422;24.592;2023-09-19T06:12:46;100141.59;;;17.61;92.83
9035;BME280;4552;43.422;24.592;2023-09-19T06:15:14;100138.94;;;17.61;91.24
9035;BME280;4552;43.422;24.592;2023-09-19T06:17:42;100140.22;;;17.74;91.00
9035;BME280;4552;43.422;24.592;2023-09-19T06:20:10;100134.59;;;18.03;90.21
9035;BME280;4552;43.422;24.592;2023-09-19T06:22:42;100124.19;;;17.77;90.47
9035;BME280;4552;43.422;24.592;2023-09-19T06:25:09;100142.72;;;17.77;91.46
9035;BME280;4552;43.422;24.592;2023-09-19T06:27:38;100138.63;;;17.70;91.39
9035;BME280;4552;43.422;24.592;2023-09-19T06:30:07;100141.47;;;17.64;90.14
9035;BME280;4552;43.422;24.592;2023-09-19T06:32:35;100146.91;;;18.04;88.75
9035;BME280;4552;43.422;24.592;2023-09-19T06:35:02;100136.56;;;17.98;87.88
9035;BME280;4552;43.422;24.592;2023-09-19T06:37:32;100142.91;;;17.72;89.23
9035;BME280;4552;43.422;24.592;2023-09-19T06:40:01;100137.72;;;17.48;89.16
9035;BME280;4552;43.422;24.592;2023-09-19T06:42:31;100141.78;;;17.78;87.58
9035;BME280;4552;43.422;24.592;2023-09-19T06:44:58;100128.63;;;17.98;86.84
9035;BME280;4552;43.422;24.592;2023-09-19T12:03:08;99995.03;;;25.91;43.52
9035;BME280;4552;43.422;24.592;2023-09-19T12:05:36;99988.47;;;25.95;43.33
9035;BME280;4552;43.422;24.592;2023-09-19T12:08:04;99997.34;;;26.08;42.57
9035;BME280;4552;43.422;24.592;2023-09-19T12:10:34;99993.78;;;26.08;42.57
9035;BME280;4552;43.422;24.592;2023-09-19T12:13:10;99993.84;;;26.19;42.60
9035;BME280;4552;43.422;24.592;2023-09-19T12:15:37;99997.22;;;26.10;41.20
9035;BME280;4552;43.422;24.592;2023-09-19T12:18:07;99985.44;;;26.23;42.20
9035;BME280;4552;43.422;24.592;2023-09-19T12:20:44;99987.44;;;26.43;41.46
9035;BME280;4552;43.422;24.592;2023-09-19T12:23:13;99983.28;;;26.50;40.14
9035;BME280;4552;43.422;24.592;2023-09-19T12:25:41;99982.31;;;26.62;40.76
9035;BME280;4552;43.422;24.592;2023-09-19T12:28:12;99972.69;;;26.60;40.40
9035;BME280;4552;43.422;24.592;2023-09-19T12:30:39;99983.03;;;26.31;40.67
9035;BME280;4552;43.422;24.592;2023-09-19T12:33:16;99973.22;;;26.19;40.62
9035;BME280;4552;43.422;24.592;2023-09-19T12:35:45;99966.88;;;26.20;39.98
9035;BME280;4552;43.422;24.592;2023-09-19T12:38:23;99968.41;;;26.46;39.78
9035;BME280;4552;43.422;24.592;2023-09-19T12:40:51;99968.28;;;26.48;39.68
9035;BME280;4552;43.422;24.592;2023-09-19T12:43:18;99982.13;;;26.65;39.33
9035;BME280;4552;43.422;24.592;2023-09-19T12:45:47;99975.25;;;26.61;38.84
9035;BME280;4552;43.422;24.592;2023-09-19T12:48:20;99980.84;;;26.58;38.60
9035;BME280;4552;43.422;24.592;2023-09-19T12:51:04;99977.91;;;26.50;39.08
9035;BME280;4552;43.422;24.592;2023-09-19T12:53:37;99978.72;;;26.74;38.42
9035;BME280;4552;43.422;24.592;2023-09-19T12:56:06;99965.22;;;26.41;38.78
9035;BME280;4552;43.422;24.592;2023-09-19T12:58:48;99980.31;;;26.20;38.55
9035;BME280;4552;43.422;24.592;2023-09-19T13:01:15;99977.09;;;26.04;38.77
9035;BME280;4552;43.422;24.592;2023-09-19T13:03:44;99976.28;;;25.91;39.00
9035;BME280;4552;43.422;24.592;2023-09-19T13:06:11;99975.75;;;25.86;39.55
9035;BME280;4552;43.422;24.592;2023-09-19T13:08:42;99985.25;;;25.79;40.22
9035;BME280;4552;43.422;24.592;2023-09-19T13:11:15;99977.03;;;25.70;39.98
9035;BME280;4552;43.422;24.592;2023-09-19T13:13:45;99974.16;;;25.60;40.23
9035;BME280;4552;43.422;24.592;2023-09-19T13:16:14;99973.41;;;25.71;40.69
9035;BME280;4552;43.422;24.592;2023-09-19T13:18:50;99977.06;;;25.57;41.11
9035;BME280;4552;43.422;24.592;2023-09-19T13:21:27;99964.94;;;25.64;40.94
9035;BME280;4552;43.422;24.592;2023-09-19T13:24:18;99956.94;;;25.75;40.68
9035;BME280;4552;43.422;24.592;2023-09-19T23:56:56;100055.53;;;19.13;76.08
9035;BME280;4552;43.422;24.592;2023-09-19T23:59:24;100043.03;;;18.96;76.51
